Time;durP1;ratioP1;P1;durP2;ratioP2;P2;SDS_P1;SDS_P2;PMS_P1;PMS_P2;Temp;Humidity;BMP_temperature;BMP_pressure;BME280_temperature;BME280_humidity;BME280_pressure;Samples;Min_cycle;Max_cycle;Signal;HPM_P1;HPM_P2
2022/06/04 00:00:43;;;;;;;1999.90;999.90;;;18.60;99.90;;;;;;4975902;28;20605;-76
2022/06/04 00:03:09;;;;;;;1999.90;999.90;;;18.60;99.90;;;;;;4973300;28;20031;-72
2022/06/04 00:05:45;;;;;;;1999.90;999.90;;;18.70;99.90;;;;;;4976539;28;20458;-76
2022/06/04 00:08:11;;;;;;;1999.90;999.90;;;18.70;99.90;;;;;;4976328;28;20061;-76
2022/06/04 00:16:10;;;;;;;1999.90;999.90;;;18.70;99.90;;;;;;4970657;28;20096;-76
2022/06/04 00:18:36;;;;;;;1999.90;999.90;;;18.70;99.90;;;;;;4975580;28;20089;-76
2022/06/04 00:21:03;;;;;;;1999.90;999.90;;;18.70;99.90;;;;;;4975387;28;20041;-76
2022/06/04 00:23:29;;;;;;;1999.90;999.90;;;18.70;99.90;;;;;;4959838;28;20047;-76
2022/06/04 00:25:57;;;;;;;1999.90;999.90;;;18.70;99.90;;;;;;4960990;28;20023;-76
2022/06/04 00:28:24;;;;;;;1999.90;999.90;;;18.70;99.90;;;;;;4976110;28;20034;-73
2022/06/04 00:30:51;;;;;;;1999.90;999.90;;;18.70;99.90;;;;;;4975957;28;20023;-76
2022/06/04 00:33:17;;;;;;;1999.90;999.90;;;18.70;99.90;;;;;;4976175;28;20019;-76
2022/06/04 00:35:49;;;;;;;1999.90;999.90;;;18.70;99.90;;;;;;4975830;28;20455;-76
2022/06/04 00:38:17;;;;;;;1999.90;999.90;;;18.70;99.90;;;;;;4976221;28;20105;-76
2022/06/04 00:41:05;;;;;;;1999.90;999.90;;;18.60;99.90;;;;;;4953204;29;20054;-76
2022/06/04 00:43:32;;;;;;;1999.90;999.90;;;18.60;99.90;;;;;;4964934;28;20065;-76
2022/06/04 00:46:35;;;;;;;1999.90;999.90;;;18.60;99.90;;;;;;4970628;28;20031;-76
2022/06/04 00:49:01;;;;;;;1999.90;999.90;;;18.60;99.90;;;;;;4971048;28;20034;-76
2022/06/04 00:51:27;;;;;;;1999.90;999.90;;;18.60;99.90;;;;;;4975717;28;20018;-76
2022/06/04 00:53:56;;;;;;;1999.90;999.90;;;18.50;99.90;;;;;;4975312;28;20062;-76
2022/06/04 00:56:40;;;;;;;1999.90;999.90;;;18.50;99.90;;;;;;4975507;28;20029;-76
2022/06/04 00:59:29;;;;;;;1999.90;999.90;;;18.50;99.90;;;;;;4966341;28;20110;-76
2022/06/04 01:02:00;;;;;;;1999.90;999.90;;;18.50;99.90;;;;;;4975362;28;20033;-76
2022/06/04 01:04:50;;;;;;;1999.90;999.90;;;18.50;99.90;;;;;;4971804;28;20098;-76
2022/06/04 01:07:24;;;;;;;1999.90;999.90;;;18.50;99.90;;;;;;4975482;28;20023;-76
2022/06/04 01:10:23;;;;;;;1999.90;999.90;;;18.50;99.90;;;;;;4975239;28;20109;-76
2022/06/04 01:13:17;;;;;;;1999.90;999.90;;;18.50;99.90;;;;;;4970534;28;20034;-76
2022/06/04 01:16:37;;;;;;;1999.90;999.90;;;18.50;99.90;;;;;;4952174;28;20022;-76
2022/06/04 01:19:24;;;;;;;1999.90;999.90;;;18.50;99.90;;;;;;4878118;29;20033;-76
2022/06/04 01:22:16;;;;;;;1999.90;999.90;;;18.50;99.90;;;;;;4967651;28;20031;-76
2022/06/04 01:25:06;;;;;;;1999.90;999.90;;;18.50;99.90;;;;;;4961950;28;20113;-76
2022/06/04 01:27:43;;;;;;;1999.90;999.90;;;18.40;99.90;;;;;;4974095;28;20031;-76
2022/06/04 01:30:27;;;;;;;1999.90;999.90;;;18.40;99.90;;;;;;4974974;28;20022;-76
2022/06/04 01:33:03;;;;;;;1999.90;999.90;;;18.40;99.90;;;;;;4974792;28;20031;-76
2022/06/04 01:35:42;;;;;;;1999.90;999.90;;;18.30;99.90;;;;;;4974696;28;20019;-76
2022/06/04 01:38:30;;;;;;;1999.90;999.90;;;18.30;99.90;;;;;;4968262;28;20023;-76
2022/06/04 01:41:05;;;;;;;1999.90;999.90;;;18.30;99.90;;;;;;4963999;28;20497;-76
2022/06/04 01:43:43;;;;;;;1999.90;999.90;;;18.20;99.90;;;;;;4943451;28;20023;-76
2022/06/04 01:46:14;;;;;;;1999.90;999.90;;;18.20;99.90;;;;;;4968091;28;20027;-76
2022/06/04 01:48:43;;;;;;;1999.90;999.90;;;18.20;99.90;;;;;;4972562;28;20034;-76
2022/06/04 01:51:12;;;;;;;1999.90;999.90;;;18.10;99.90;;;;;;4974076;28;20030;-76
2022/06/04 01:53:40;;;;;;;1999.90;999.90;;;18.10;99.90;;;;;;4973988;28;20018;-76
2022/06/04 01:56:16;;;;;;;1999.90;999.90;;;18.10;99.90;;;;;;4975185;28;20097;-76
2022/06/04 01:58:50;;;;;;;1999.90;999.90;;;18.10;99.90;;;;;;4965499;28;20235;-76
2022/06/04 02:01:23;;;;;;;1999.90;999.90;;;18.00;99.90;;;;;;4974463;28;20081;-73
2022/06/04 02:04:06;;;;;;;1999.90;999.90;;;18.00;99.90;;;;;;4972331;28;20109;-77
2022/06/04 02:07:29;;;;;;;1999.90;999.90;;;18.00;99.90;;;;;;4957124;28;20558;-76
2022/06/04 02:09:34;;;;;;;1999.90;999.90;;;18.00;99.90;;;;;;4973955;28;20037;-76
2022/06/04 02:12:01;;;;;;;1999.90;999.90;;;17.90;99.90;;;;;;4971494;28;20031;-76
2022/06/04 02:14:27;;;;;;;1999.90;999.90;;;17.90;99.90;;;;;;4964705;28;20054;-76
2022/06/04 02:16:58;;;;;;;1999.90;999.90;;;17.80;99.90;;;;;;4974095;28;20494;-76
2022/06/04 02:19:23;;;;;;;1999.90;999.90;;;17.80;99.90;;;;;;4974168;28;20049;-76
2022/06/04 02:21:49;;;;;;;1999.90;999.90;;;17.80;99.90;;;;;;4966509;28;20546;-77
2022/06/04 02:24:15;;;;;;;1999.90;999.90;;;17.80;99.90;;;;;;4957447;28;20043;-76
2022/06/04 02:26:41;;;;;;;1999.90;999.90;;;17.80;99.90;;;;;;4965196;28;20111;-76
2022/06/04 02:29:07;;;;;;;1999.90;999.90;;;17.70;99.90;;;;;;4973805;28;20078;-76
2022/06/04 02:31:59;;;;;;;1999.90;999.90;;;17.70;99.90;;;;;;4956393;28;20042;-76
2022/06/04 02:34:54;;;;;;;1999.90;999.90;;;17.70;99.90;;;;;;4973805;28;20033;-76
2022/06/04 02:37:40;;;;;;;1999.90;999.90;;;17.70;99.90;;;;;;4973536;28;20058;-76
2022/06/04 02:40:09;;;;;;;1999.90;999.90;;;17.70;99.90;;;;;;4964762;28;20023;-73
2022/06/04 02:42:56;;;;;;;1999.90;999.90;;;17.70;99.90;;;;;;4960204;28;20031;-76
2022/06/04 02:45:29;;;;;;;1999.90;999.90;;;17.70;99.90;;;;;;4970548;28;20490;-76
2022/06/04 02:48:29;;;;;;;1999.90;999.90;;;17.70;99.90;;;;;;4965965;28;20042;-76
2022/06/04 02:51:04;;;;;;;1999.90;999.90;;;17.70;99.90;;;;;;4973725;28;20023;-76
2022/06/04 02:53:32;;;;;;;1999.90;999.90;;;17.70;99.90;;;;;;4973062;28;20030;-76
2022/06/04 02:56:03;;;;;;;1999.90;999.90;;;17.70;99.90;;;;;;4973301;28;20031;-76
2022/06/04 02:58:31;;;;;;;1999.90;999.90;;;17.80;99.90;;;;;;4964336;28;20084;-76
2022/06/04 03:00:58;;;;;;;1999.90;999.90;;;17.80;99.90;;;;;;4973719;28;20030;-76
2022/06/04 03:03:25;;;;;;;1999.90;999.90;;;17.80;99.90;;;;;;4972108;28;20029;-76
2022/06/04 03:06:03;;;;;;;1999.90;999.90;;;17.80;99.90;;;;;;4973621;28;20079;-76
2022/06/04 03:08:32;;;;;;;1999.90;999.90;;;17.80;99.90;;;;;;4973328;28;20037;-76
2022/06/04 03:10:58;;;;;;;1999.90;999.90;;;17.90;99.90;;;;;;4973509;28;20098;-76
2022/06/04 03:13:24;;;;;;;1999.90;999.90;;;17.90;99.90;;;;;;4969669;28;20027;-76
2022/06/04 03:15:50;;;;;;;1999.90;999.90;;;17.90;99.90;;;;;;4968278;28;20497;-76
2022/06/04 03:18:17;;;;;;;1999.90;999.90;;;17.90;99.90;;;;;;4973430;28;20038;-76
2022/06/04 03:20:43;;;;;;;1999.90;999.90;;;17.90;99.90;;;;;;4973237;28;20027;-76
2022/06/04 03:23:09;;;;;;;1999.90;999.90;;;17.90;99.90;;;;;;4958360;28;20414;-76
2022/06/04 03:25:38;;;;;;;1999.90;999.90;;;17.90;99.90;;;;;;4967262;28;20102;-76
2022/06/04 03:28:05;;;;;;;1999.90;999.90;;;17.90;99.90;;;;;;4973341;28;20038;-76
2022/06/04 03:30:31;;;;;;;1999.90;999.90;;;17.90;99.90;;;;;;4973615;28;20022;-76
2022/06/04 03:32:57;;;;;;;1999.90;999.90;;;17.80;99.90;;;;;;4955924;28;20474;-76
2022/06/04 03:35:24;;;;;;;1999.90;999.90;;;17.80;99.90;;;;;;4973211;28;20070;-76
2022/06/04 03:37:49;;;;;;;1999.90;999.90;;;17.80;99.90;;;;;;4951928;29;20391;-76
2022/06/04 03:40:15;;;;;;;1999.90;999.90;;;17.80;99.90;;;;;;4957891;28;20043;-76
2022/06/04 03:42:42;;;;;;;1999.90;999.90;;;17.80;99.90;;;;;;4969393;28;20530;-73
2022/06/04 03:45:11;;;;;;;1999.90;999.90;;;17.80;99.90;;;;;;4971097;28;20532;-76
2022/06/04 03:47:36;;;;;;;1999.90;999.90;;;17.80;99.90;;;;;;4966697;28;20114;-76
2022/06/04 03:50:08;;;;;;;1999.90;999.90;;;17.80;99.90;;;;;;4975341;28;20218;-78
2022/06/04 03:52:34;;;;;;;1999.90;999.90;;;17.70;99.90;;;;;;4966319;28;20034;-76
2022/06/04 03:55:01;;;;;;;1999.90;999.90;;;17.70;99.90;;;;;;4975612;28;20101;-76
2022/06/04 03:57:38;;;;;;;1999.90;999.90;;;17.70;99.90;;;;;;4970765;28;20162;-77
2022/06/04 04:00:07;;;;;;;1999.90;999.90;;;17.60;99.90;;;;;;4970370;28;20019;-76
2022/06/04 04:02:33;;;;;;;1999.90;999.90;;;17.60;99.90;;;;;;4951417;28;20162;-76
2022/06/04 04:05:00;;;;;;;1999.90;999.90;;;17.60;99.90;;;;;;4972534;28;20058;-76
2022/06/04 04:07:25;;;;;;;1999.90;999.90;;;17.60;99.90;;;;;;4959205;28;20507;-76
2022/06/04 04:09:51;;;;;;;1999.90;999.90;;;17.60;99.90;;;;;;4976213;28;20095;-73
2022/06/04 04:12:17;;;;;;;1999.90;999.90;;;17.60;99.90;;;;;;4976137;28;20030;-76
2022/06/04 04:14:42;;;;;;;1999.90;999.90;;;17.60;99.90;;;;;;4965647;28;20042;-76
2022/06/04 04:17:09;;;;;;;1999.90;999.90;;;17.60;99.90;;;;;;4976481;28;20026;-76
2022/06/04 04:19:35;;;;;;;1999.90;999.90;;;17.50;99.90;;;;;;4976170;28;20049;-76
2022/06/04 04:22:01;;;;;;;1999.90;999.90;;;17.50;99.90;;;;;;4967915;28;20019;-77
2022/06/04 04:24:27;;;;;;;1999.90;999.90;;;17.50;99.90;;;;;;4964772;28;20047;-76
2022/06/04 04:26:53;;;;;;;1999.90;999.90;;;17.50;99.90;;;;;;4958339;28;20031;-76
2022/06/04 04:29:19;;;;;;;1999.90;999.90;;;17.60;99.90;;;;;;4975908;28;20029;-76
2022/06/04 04:31:45;;;;;;;1999.90;999.90;;;17.60;99.90;;;;;;4975861;28;20026;-76
2022/06/04 04:34:11;;;;;;;1999.90;999.90;;;17.70;99.90;;;;;;4976025;28;20090;-76
2022/06/04 04:36:37;;;;;;;1999.90;999.90;;;17.70;99.90;;;;;;4975981;28;20031;-76
2022/06/04 04:39:03;;;;;;;1999.90;999.90;;;17.70;99.90;;;;;;4964094;28;20027;-76
2022/06/04 04:41:28;;;;;;;1999.90;999.90;;;17.70;99.90;;;;;;4964562;28;20077;-76
2022/06/04 04:43:54;;;;;;;1999.90;999.90;;;17.70;99.90;;;;;;4967809;28;20034;-76
2022/06/04 04:46:20;;;;;;;1999.90;999.90;;;17.80;99.90;;;;;;4967710;28;20475;-76
2022/06/04 04:48:47;;;;;;;1999.90;999.90;;;17.90;99.90;;;;;;4974872;28;20049;-76
2022/06/04 04:51:19;;;;;;;1999.90;999.90;;;17.90;99.90;;;;;;4972623;28;20026;-76
2022/06/04 04:53:46;;;;;;;1999.90;999.90;;;18.00;99.90;;;;;;4975721;28;20027;-76
2022/06/04 04:56:16;;;;;;;1999.90;999.90;;;18.00;99.90;;;;;;4973826;28;20019;-76
2022/06/04 04:58:42;;;;;;;1999.90;999.90;;;18.00;99.90;;;;;;4966091;28;20041;-76
2022/06/04 05:01:22;;;;;;;1999.90;999.90;;;18.00;99.90;;;;;;4975206;28;20489;-77
2022/06/04 05:03:48;;;;;;;1999.90;999.90;;;18.10;99.90;;;;;;4975575;28;20035;-76
2022/06/04 05:06:15;;;;;;;1999.90;999.90;;;18.10;99.90;;;;;;4967599;28;20037;-76
2022/06/04 05:08:41;;;;;;;1999.90;999.90;;;18.20;99.90;;;;;;4975390;28;20066;-76
2022/06/04 05:11:19;;;;;;;1999.90;999.90;;;18.20;99.90;;;;;;4975198;28;20054;-76
2022/06/04 05:13:49;;;;;;;1999.90;999.90;;;18.30;99.90;;;;;;4970074;28;20035;-76
2022/06/04 05:16:23;;;;;;;1999.90;999.90;;;18.40;99.90;;;;;;4971250;28;20091;-77
2022/06/04 05:18:48;;;;;;;1999.90;999.90;;;18.50;99.90;;;;;;4975372;28;20535;-76
2022/06/04 05:21:35;;;;;;;1999.90;999.90;;;18.40;99.90;;;;;;4972741;28;20099;-76
2022/06/04 05:24:00;;;;;;;1999.90;999.90;;;18.40;99.90;;;;;;4958566;28;20083;-76
2022/06/04 05:26:26;;;;;;;1999.90;999.90;;;18.50;99.90;;;;;;4974019;28;20418;-76
2022/06/04 05:28:53;;;;;;;1999.90;999.90;;;18.50;99.90;;;;;;4974417;28;20113;-77
2022/06/04 05:31:19;;;;;;;1999.90;999.90;;;18.50;99.90;;;;;;4969598;28;20053;-76
2022/06/04 05:33:45;;;;;;;1999.90;999.90;;;18.50;99.90;;;;;;4970324;28;20031;-76
2022/06/04 05:36:10;;;;;;;1999.90;999.90;;;18.50;99.90;;;;;;4973404;28;20018;-76
2022/06/04 05:38:36;;;;;;;1999.90;999.90;;;18.40;99.90;;;;;;4947212;29;20027;-76
2022/06/04 05:41:07;;;;;;;1999.90;999.90;;;18.40;99.90;;;;;;4968501;28;20031;-73
2022/06/04 05:43:33;;;;;;;1999.90;999.90;;;18.40;99.90;;;;;;4960120;28;20146;-76
2022/06/04 05:46:11;;;;;;;1999.90;999.90;;;18.40;99.90;;;;;;4969430;28;20070;-76
2022/06/04 05:48:39;;;;;;;1999.90;999.90;;;18.30;99.90;;;;;;4972083;28;20394;-76
2022/06/04 05:51:05;;;;;;;1999.90;999.90;;;18.40;99.90;;;;;;4974450;28;20077;-76
2022/06/04 05:53:31;;;;;;;1999.90;999.90;;;18.40;99.90;;;;;;4974667;28;20027;-76
2022/06/04 05:55:57;;;;;;;1999.90;999.90;;;18.40;99.90;;;;;;4974440;28;20030;-76
2022/06/04 05:58:22;;;;;;;1999.90;999.90;;;18.40;99.90;;;;;;4964064;28;20444;-76
2022/06/04 06:00:48;;;;;;;1999.90;999.90;;;18.40;99.90;;;;;;4974370;28;20118;-76
2022/06/04 06:03:14;;;;;;;1999.90;999.90;;;18.30;99.90;;;;;;4974452;28;20557;-77
2022/06/04 06:05:44;;;;;;;1999.90;999.90;;;18.40;99.90;;;;;;4967633;28;20390;-77
2022/06/04 06:08:11;;;;;;;1999.90;999.90;;;18.30;99.90;;;;;;4974162;28;20026;-76
2022/06/04 06:10:44;;;;;;;1999.90;999.90;;;18.30;99.90;;;;;;4974208;28;20023;-76
2022/06/04 06:13:10;;;;;;;1999.90;999.90;;;18.40;99.90;;;;;;4961363;28;20034;-77
2022/06/04 06:15:36;;;;;;;1999.90;999.90;;;18.40;99.90;;;;;;4968851;28;20110;-77
2022/06/04 06:18:03;;;;;;;1999.90;999.90;;;18.40;99.90;;;;;;4974268;28;20129;-76
2022/06/04 06:20:29;;;;;;;1999.90;999.90;;;18.40;99.90;;;;;;4973617;28;20026;-76
2022/06/04 06:22:55;;;;;;;1999.90;999.90;;;18.30;99.90;;;;;;4940908;28;21370;-76
2022/06/04 06:25:21;;;;;;;1999.90;999.90;;;18.30;99.90;;;;;;4964639;28;20101;-76
2022/06/04 06:27:47;;;;;;;1999.90;999.90;;;18.40;99.90;;;;;;4974032;28;20035;-76
2022/06/04 06:30:13;;;;;;;1999.90;999.90;;;18.40;99.90;;;;;;4973378;28;20025;-77
2022/06/04 06:32:40;;;;;;;1999.90;999.90;;;18.50;99.90;;;;;;4973750;28;20030;-73
2022/06/04 06:35:07;;;;;;;1999.90;999.90;;;18.60;99.90;;;;;;4974074;28;20015;-76
2022/06/04 06:37:33;;;;;;;1999.90;999.90;;;18.70;99.90;;;;;;4971828;28;20077;-76
2022/06/04 06:39:59;;;;;;;1999.90;999.90;;;18.80;99.90;;;;;;4965055;28;20434;-76
2022/06/04 06:42:24;;;;;;;1999.90;999.90;;;19.00;99.90;;;;;;4970805;28;20082;-77
2022/06/04 06:44:51;;;;;;;1999.90;999.90;;;19.20;99.90;;;;;;4966513;28;20023;-73
2022/06/04 06:47:17;;;;;;;1999.90;999.90;;;19.30;99.90;;;;;;4963479;28;20023;-76
2022/06/04 06:49:43;;;;;;;1999.90;999.90;;;19.10;99.90;;;;;;4973857;28;20031;-76
2022/06/04 06:52:09;;;;;;;1999.90;999.90;;;19.10;99.90;;;;;;4973505;28;20031;-76
2022/06/04 06:54:37;;;;;;;1999.90;999.90;;;19.00;99.90;;;;;;4974008;28;20513;-76
2022/06/04 06:57:08;;;;;;;1999.90;999.90;;;19.00;99.90;;;;;;4970392;28;20109;-77
2022/06/04 06:59:35;;;;;;;1999.90;999.90;;;19.10;99.90;;;;;;4967176;28;20022;-77
2022/06/04 07:02:01;;;;;;;1999.90;999.90;;;19.10;99.90;;;;;;4972969;28;20027;-76
2022/06/04 07:04:27;;;;;;;1999.90;999.90;;;19.00;99.90;;;;;;4969854;28;20035;-76
2022/06/04 07:06:57;;;;;;;1999.90;999.90;;;19.00;99.90;;;;;;4970379;28;20105;-76
2022/06/04 07:09:39;;;;;;;1999.90;999.90;;;19.00;99.90;;;;;;4973607;28;20085;-76
2022/06/04 07:12:06;;;;;;;1999.90;999.90;;;19.00;99.90;;;;;;4973770;28;20057;-77
2022/06/04 07:14:32;;;;;;;1999.90;999.90;;;19.10;99.90;;;;;;4963320;28;20028;-76
2022/06/04 07:16:59;;;;;;;1999.90;999.90;;;19.30;99.90;;;;;;4972940;28;20027;-76
2022/06/04 07:19:26;;;;;;;1999.90;999.90;;;19.50;99.90;;;;;;4975481;28;20026;-77
2022/06/04 07:21:53;;;;;;;1999.90;999.90;;;19.70;99.90;;;;;;4970014;28;20545;-77
2022/06/04 07:24:19;;;;;;;1999.90;999.90;;;19.80;99.90;;;;;;4961940;28;20055;-76
2022/06/04 07:26:45;;;;;;;1999.90;999.90;;;19.80;99.90;;;;;;4977382;28;20030;-76
2022/06/04 07:29:12;;;;;;;1999.90;999.90;;;19.70;99.90;;;;;;4960631;28;20102;-76
2022/06/04 07:31:39;;;;;;;1999.90;999.90;;;19.80;99.90;;;;;;4976491;28;20078;-77
2022/06/04 07:34:05;;;;;;;1999.90;999.90;;;19.70;99.90;;;;;;4977127;28;20049;-77
2022/06/04 07:36:36;;;;;;;1999.90;999.90;;;19.70;99.90;;;;;;4959598;28;20490;-76
2022/06/04 07:39:07;;;;;;;1999.90;999.90;;;19.50;99.90;;;;;;4964795;28;20487;-76
2022/06/04 07:41:36;;;;;;;1999.90;999.90;;;19.30;99.90;;;;;;4965160;28;20031;-76
2022/06/04 07:44:02;;;;;;;1999.90;999.90;;;19.00;99.90;;;;;;4965468;28;20570;-76
2022/06/04 07:46:30;;;;;;;1999.90;999.90;;;19.00;99.90;;;;;;4961013;28;20038;-77
2022/06/04 07:48:57;;;;;;;1999.90;999.90;;;19.00;99.90;;;;;;4973675;28;20023;-77
2022/06/04 07:51:23;;;;;;;1999.90;999.90;;;18.90;99.90;;;;;;4959370;28;20019;-77
2022/06/04 07:53:49;;;;;;;1999.90;999.90;;;18.90;99.90;;;;;;4973955;28;20482;-76
2022/06/04 07:56:17;;;;;;;1999.90;999.90;;;19.00;99.90;;;;;;4966778;28;20023;-76
2022/06/04 07:58:44;;;;;;;1999.90;999.90;;;19.10;99.90;;;;;;4967305;28;20163;-76
2022/06/04 08:01:14;;;;;;;1999.90;999.90;;;19.30;99.90;;;;;;4976120;28;20038;-76
2022/06/04 08:03:41;;;;;;;1999.90;999.90;;;19.80;99.90;;;;;;4976213;28;20026;-77
2022/06/04 08:06:07;;;;;;;1999.90;999.90;;;21.50;99.90;;;;;;4976354;28;20034;-77
2022/06/04 08:08:34;;;;;;;1999.90;999.90;;;23.90;99.90;;;;;;4976443;28;20042;-76
2022/06/04 08:11:01;;;;;;;1999.90;999.90;;;25.10;99.90;;;;;;4976359;28;20030;-76
2022/06/04 08:13:30;;;;;;;1999.90;999.90;;;27.20;99.90;;;;;;4967967;28;20019;-77
2022/06/04 08:15:57;;;;;;;1999.90;999.90;;;28.40;99.90;;;;;;4971520;28;20090;-77
2022/06/04 08:18:24;;;;;;;1999.90;999.90;;;28.90;99.90;;;;;;4976355;28;20033;-77
2022/06/04 08:20:50;;;;;;;1999.90;999.90;;;27.50;99.10;;;;;;4974308;28;20031;-77
2022/06/04 08:23:16;;;;;;;1999.90;999.90;;;27.10;99.90;;;;;;4959780;28;20533;-77
2022/06/04 08:25:50;;;;;;;1999.90;999.90;;;27.90;98.00;;;;;;4969442;28;20038;-77
2022/06/04 08:28:16;;;;;;;1999.90;999.90;;;28.60;96.80;;;;;;4974176;28;20110;-77
2022/06/04 08:30:42;;;;;;;1999.90;999.90;;;27.30;97.50;;;;;;4957388;28;20026;-77
2022/06/04 08:33:09;;;;;;;1999.90;999.90;;;27.40;97.50;;;;;;4975887;28;20027;-77
2022/06/04 08:35:35;;;;;;;1999.90;999.90;;;26.80;98.20;;;;;;4958259;28;20034;-76
2022/06/04 08:38:00;;;;;;;1999.90;999.90;;;27.70;97.20;;;;;;4970566;28;20023;-77
2022/06/04 08:40:39;;;;;;;1999.90;999.90;;;27.90;96.00;;;;;;4967635;28;20494;-77
2022/06/04 08:43:25;;;;;;;1999.90;999.90;;;26.30;97.80;;;;;;4969382;28;20503;-76
2022/06/04 08:45:51;;;;;;;1999.90;999.90;;;25.40;98.40;;;;;;4929056;28;20510;-76
2022/06/04 08:48:21;;;;;;;1999.90;999.90;;;24.40;99.70;;;;;;4969988;28;20037;-76
2022/06/04 08:50:48;;;;;;;1999.90;999.90;;;26.80;98.00;;;;;;4970057;28;20023;-77
2022/06/04 08:53:25;;;;;;;1999.90;999.90;;;29.40;94.10;;;;;;4959042;28;20069;-77
2022/06/04 08:59:12;;;;;;;1999.90;999.90;;;26.30;95.70;;;;;;4963331;28;20521;-76
2022/06/04 09:01:42;;;;;;;1999.90;999.90;;;25.00;98.30;;;;;;4975309;28;20097;-76
2022/06/04 09:04:27;;;;;;;1999.90;999.90;;;24.20;99.00;;;;;;4975238;28;20045;-77
2022/06/04 09:07:04;;;;;;;1999.90;999.90;;;23.70;99.90;;;;;;4975411;28;20027;-76
2022/06/04 09:09:46;;;;;;;1999.90;999.90;;;23.40;99.90;;;;;;4975376;28;20057;-77
2022/06/04 09:12:27;;;;;;;1999.90;999.90;;;23.30;99.90;;;;;;4975456;28;20018;-76
2022/06/04 09:15:27;;;;;;;1999.90;999.90;;;24.50;99.90;;;;;;4963924;28;20041;-77
2022/06/04 09:17:55;;;;;;;1999.90;999.90;;;26.60;99.10;;;;;;4975312;28;20154;-77
2022/06/04 09:20:40;;;;;;;1999.90;999.90;;;27.80;96.10;;;;;;4974588;28;20034;-76
2022/06/04 09:23:11;;;;;;;1999.90;999.90;;;28.20;94.40;;;;;;4958188;28;20054;-76
2022/06/04 09:25:45;;;;;;;1999.90;999.90;;;27.00;95.70;;;;;;4967684;28;20027;-76
2022/06/04 09:28:22;;;;;;;1999.90;999.90;;;25.80;97.80;;;;;;4974846;28;20121;-76
2022/06/04 09:31:08;;;;;;;1999.90;999.90;;;24.90;98.00;;;;;;4974728;28;20031;-76
2022/06/04 09:34:01;;;;;;;1999.90;999.90;;;24.50;99.00;;;;;;4974950;28;20118;-76
2022/06/04 09:36:31;;;;;;;1999.90;999.90;;;24.50;99.10;;;;;;4974158;28;20023;-77
2022/06/04 09:39:06;;;;;;;1999.90;999.90;;;24.40;98.20;;;;;;4963336;28;20035;-76
2022/06/04 09:41:34;;;;;;;1999.90;999.90;;;24.10;98.80;;;;;;4972002;28;20482;-76
2022/06/04 09:44:14;;;;;;;1999.90;999.90;;;23.70;99.20;;;;;;4954361;28;20097;-76
2022/06/04 09:46:45;;;;;;;1999.90;999.90;;;23.40;99.90;;;;;;4966519;28;20039;-76
2022/06/04 09:49:34;;;;;;;1999.90;999.90;;;23.00;99.90;;;;;;4964377;28;20031;-76
2022/06/04 09:52:22;;;;;;;1999.90;999.90;;;22.90;99.90;;;;;;4974296;28;20034;-76
2022/06/04 09:55:00;;;;;;;1999.90;999.90;;;23.00;99.90;;;;;;4957327;28;20085;-77
2022/06/04 09:57:35;;;;;;;1999.90;999.90;;;23.00;99.90;;;;;;4951375;29;20387;-76
2022/06/04 10:00:05;;;;;;;1999.90;999.90;;;23.10;99.90;;;;;;4971885;28;20033;-76
2022/06/04 10:02:32;;;;;;;1999.90;999.90;;;23.90;99.90;;;;;;4974301;28;20062;-76
2022/06/04 10:05:18;;;;;;;1999.90;999.90;;;24.80;99.50;;;;;;4957091;28;20035;-76
2022/06/04 10:07:43;;;;;;;1999.90;999.90;;;25.20;99.40;;;;;;4973852;28;20110;-77
2022/06/04 10:10:19;;;;;;;1999.90;999.90;;;25.10;99.20;;;;;;4973770;28;20110;-76
2022/06/04 10:15:41;;;;;;;1999.90;999.90;;;25.00;99.20;;;;;;4969681;28;20041;-76
2022/06/04 10:18:23;;;;;;;1999.90;999.90;;;25.20;99.10;;;;;;4974153;28;20472;-76
2022/06/04 10:21:16;;;;;;;1999.90;999.90;;;24.90;98.70;;;;;;4972497;28;20027;-76
2022/06/04 10:23:45;;;;;;;1999.90;999.90;;;24.70;99.90;;;;;;4957158;28;20054;-76
2022/06/04 10:26:32;;;;;;;1999.90;999.90;;;25.30;99.90;;;;;;4970521;28;20031;-76
2022/06/04 10:29:17;;;;;;;1999.90;999.90;;;26.90;96.80;;;;;;4974084;28;20031;-77
2022/06/04 10:32:09;;;;;;;1999.90;999.90;;;26.40;95.70;;;;;;4974014;28;20027;-76
2022/06/04 10:34:52;;;;;;;1999.90;999.90;;;25.40;98.40;;;;;;4974132;28;20023;-76
2022/06/04 10:37:26;;;;;;;1999.90;999.90;;;24.60;98.00;;;;;;4970869;28;20022;-76
2022/06/04 10:40:17;;;;;;;1999.90;999.90;;;24.10;99.30;;;;;;4963842;28;20490;-77
2022/06/04 10:43:15;;;;;;;1999.90;999.90;;;23.60;99.90;;;;;;4955452;28;20498;-77
2022/06/04 10:46:10;;;;;;;1999.90;999.90;;;23.30;99.90;;;;;;4948235;28;20498;-76
2022/06/04 10:48:48;;;;;;;1999.90;999.90;;;23.10;99.90;;;;;;4971034;28;20031;-76
2022/06/04 10:51:58;;;;;;;1999.90;999.90;;;23.30;99.90;;;;;;4973854;28;20065;-76
2022/06/04 10:54:36;;;;;;;1999.90;999.90;;;23.50;99.90;;;;;;4968377;28;20118;-76
2022/06/04 10:57:33;;;;;;;1999.90;999.90;;;23.80;99.90;;;;;;4971089;28;20482;-76
2022/06/04 11:00:16;;;;;;;1999.90;999.90;;;23.90;99.90;;;;;;4970845;28;20103;-76
2022/06/04 11:02:48;;;;;;;1999.90;999.90;;;24.20;99.90;;;;;;4973765;28;20032;-76
2022/06/04 11:05:19;;;;;;;1999.90;999.90;;;23.90;99.90;;;;;;4973943;28;20026;-76
2022/06/04 11:07:53;;;;;;;1999.90;999.90;;;23.70;99.90;;;;;;4973738;28;20030;-76
2022/06/04 11:10:26;;;;;;;1999.90;999.90;;;24.60;99.90;;;;;;4955471;28;20031;-76
2022/06/04 11:13:12;;;;;;;1999.90;999.90;;;27.20;98.00;;;;;;4969428;28;20031;-77
2022/06/04 11:15:50;;;;;;;1999.90;999.90;;;27.80;97.20;;;;;;4968492;28;20038;-76
2022/06/04 11:18:40;;;;;;;1999.90;999.90;;;27.20;96.60;;;;;;4973533;28;20019;-76
2022/06/04 11:21:19;;;;;;;1999.90;999.90;;;26.80;97.50;;;;;;4969947;28;20058;-77
2022/06/04 11:23:54;;;;;;;1999.90;999.90;;;28.60;95.50;;;;;;4957411;28;20062;-77
2022/06/04 11:26:22;;;;;;;1999.90;999.90;;;29.60;94.20;;;;;;4969436;28;20035;-77
2022/06/04 11:28:48;;;;;;;1999.90;999.90;;;30.10;93.90;;;;;;4956152;28;20512;-77
2022/06/04 11:31:29;;;;;;;1999.90;999.90;;;30.40;92.50;;;;;;4972921;28;20019;-77
2022/06/04 11:34:35;;;;;;;1999.90;999.90;;;30.50;92.30;;;;;;4973454;28;20482;-77
2022/06/04 11:37:37;;;;;;;1999.90;999.90;;;30.60;92.00;;;;;;4887780;28;20080;-76
2022/06/04 11:40:39;;;;;;;1999.90;999.90;;;30.70;92.80;;;;;;4961021;28;20055;-77
2022/06/04 11:43:24;;;;;;;1999.90;999.90;;;31.90;91.20;;;;;;4951981;28;20114;-77
2022/06/04 11:46:23;;;;;;;1999.90;999.90;;;31.50;90.60;;;;;;4966881;28;20027;-76
2022/06/04 11:49:19;;;;;;;1999.90;999.90;;;30.70;91.30;;;;;;4954004;28;20407;-76
2022/06/04 11:51:57;;;;;;;1999.90;999.90;;;29.30;92.00;;;;;;4973055;28;20031;-76
2022/06/04 11:54:53;;;;;;;1999.90;999.90;;;27.50;93.20;;;;;;4973299;28;20408;-76
2022/06/04 11:57:44;;;;;;;1999.90;999.90;;;26.50;94.00;;;;;;4968538;28;20053;-76
2022/06/04 12:00:30;;;;;;;1999.90;999.90;;;26.00;96.00;;;;;;4942353;28;20614;-76
2022/06/04 12:03:04;;;;;;;1999.90;999.90;;;26.20;95.10;;;;;;4973194;28;20023;-76
2022/06/04 12:05:48;;;;;;;1999.90;999.90;;;25.80;96.10;;;;;;4975102;28;20033;-76
2022/06/04 12:08:18;;;;;;;1999.90;999.90;;;25.80;95.60;;;;;;4963622;28;20027;-76
2022/06/04 12:11:15;;;;;;;1999.90;999.90;;;25.60;95.70;;;;;;4964892;28;20023;-76
2022/06/04 12:13:52;;;;;;;1999.90;999.90;;;25.00;95.90;;;;;;4964443;28;20038;-76
2022/06/04 12:16:43;;;;;;;1999.90;999.90;;;24.70;96.80;;;;;;4973022;28;20041;-76
2022/06/04 12:24:15;;;;;;;1999.90;999.90;;;24.60;97.30;;;;;;4976608;28;20038;-76
2022/06/04 12:25:00;;;;;;;1999.90;999.90;;;24.10;97.60;;;;;;4954006;28;20568;-76
2022/06/04 12:27:26;;;;;;;1999.90;999.90;;;24.10;98.00;;;;;;4965570;28;20107;-76
2022/06/04 12:29:54;;;;;;;1999.90;999.90;;;24.00;98.50;;;;;;4969537;28;20024;-76
2022/06/04 12:32:34;;;;;;;1999.90;999.90;;;23.90;98.60;;;;;;4954877;28;20034;-76
2022/06/04 12:35:11;;;;;;;1999.90;999.90;;;23.90;99.40;;;;;;4976553;28;20094;-76
2022/06/04 12:37:47;;;;;;;1999.90;999.90;;;23.70;99.00;;;;;;4973112;28;20033;-76
2022/06/04 12:40:32;;;;;;;1999.90;999.90;;;23.60;99.10;;;;;;4966871;28;20019;-76
2022/06/04 12:42:58;;;;;;;1999.90;999.90;;;23.60;99.50;;;;;;4960902;28;20026;-76